Time;durP1;ratioP1;P1;durP2;ratioP2;P2;SDS_P1;SDS_P2;PMS_P1;PMS_P2;Temp;Humidity;BMP_temperature;BMP_pressure;BME280_temperature;BME280_humidity;BME280_pressure;Samples;Min_cycle;Max_cycle;Signal;HPM_P1;HPM_P2
2023/12/06 00:01:41;;;;;;;29.93;17.27;;;-0.90;99.90;;;;;;5130400;27;20844;-64
2023/12/06 00:04:09;;;;;;;29.33;17.97;;;-0.90;99.90;;;;;;5130052;27;20187;-64
2023/12/06 00:06:38;;;;;;;31.40;17.30;;;-0.90;99.90;;;;;;5130023;28;20195;-62
2023/12/06 00:09:08;;;;;;;30.07;16.97;;;-1.10;99.90;;;;;;5130118;28;20317;-65
2023/12/06 00:11:36;;;;;;;27.73;16.73;;;-1.10;99.90;;;;;;5130136;28;20199;-62
2023/12/06 00:14:04;;;;;;;28.10;18.07;;;-1.30;99.90;;;;;;5129963;28;20225;-65
2023/12/06 00:16:32;;;;;;;30.13;17.50;;;-1.20;99.90;;;;;;5129642;28;20195;-64
2023/12/06 00:19:01;;;;;;;24.93;16.40;;;-1.20;99.90;;;;;;5130066;28;20661;-63
2023/12/06 00:21:30;;;;;;;29.07;17.43;;;-1.20;99.90;;;;;;5129997;28;20523;-62
2023/12/06 00:23:58;;;;;;;35.17;18.67;;;-1.40;99.90;;;;;;5130029;28;20663;-66
2023/12/06 00:26:28;;;;;;;30.97;18.03;;;-1.30;99.90;;;;;;5130082;28;20264;-68
2023/12/06 00:28:56;;;;;;;30.83;17.27;;;-1.30;99.90;;;;;;5129740;28;20198;-66
2023/12/06 00:31:24;;;;;;;29.53;17.83;;;-1.30;99.90;;;;;;5129895;28;20206;-67
2023/12/06 00:33:53;;;;;;;31.80;18.40;;;-1.50;99.90;;;;;;5129778;28;20220;-65
2023/12/06 00:36:21;;;;;;;29.83;17.23;;;-1.40;99.90;;;;;;5131850;27;20206;-66
2023/12/06 00:38:49;;;;;;;24.67;16.30;;;-1.30;99.90;;;;;;5133907;27;20187;-66
2023/12/06 00:41:18;;;;;;;27.07;17.30;;;-1.40;99.90;;;;;;5133987;27;20198;-64
2023/12/06 00:43:47;;;;;;;28.80;18.20;;;-1.40;99.90;;;;;;5134040;27;20199;-63
2023/12/06 00:46:16;;;;;;;26.97;16.27;;;-1.30;99.90;;;;;;5133946;27;20195;-60
2023/12/06 00:48:44;;;;;;;28.83;17.60;;;-1.30;99.90;;;;;;5133921;27;20589;-64
2023/12/06 00:51:12;;;;;;;30.83;18.27;;;-1.40;99.90;;;;;;5133824;27;20235;-61
2023/12/06 00:53:41;;;;;;;30.53;17.20;;;-1.40;99.90;;;;;;5133836;27;20238;-65
2023/12/06 00:56:13;;;;;;;29.70;17.87;;;-1.30;99.90;;;;;;5133665;27;20199;-61
2023/12/06 00:58:43;;;;;;;30.03;17.67;;;-1.30;99.90;;;;;;5133498;27;20250;-66
2023/12/06 01:01:13;;;;;;;31.53;19.97;;;-1.10;99.90;;;;;;5133428;27;20197;-64
2023/12/06 01:03:42;;;;;;;28.70;19.17;;;-1.00;99.90;;;;;;5133674;27;20199;-59
2023/12/06 01:06:10;;;;;;;31.90;18.83;;;-1.10;99.90;;;;;;5133428;27;20198;-61
2023/12/06 01:08:38;;;;;;;32.27;19.37;;;-1.10;99.90;;;;;;5133542;27;20330;-63
2023/12/06 01:11:07;;;;;;;30.83;18.07;;;-1.00;99.90;;;;;;5133427;27;20206;-65
2023/12/06 01:13:36;;;;;;;31.60;19.17;;;-1.10;99.90;;;;;;5133135;27;20209;-65
2023/12/06 01:16:04;;;;;;;31.60;18.80;;;-1.20;99.90;;;;;;5133180;27;20198;-67
2023/12/06 01:18:34;;;;;;;31.47;18.50;;;-1.20;99.90;;;;;;5133073;27;20201;-62
2023/12/06 01:21:03;;;;;;;30.07;19.57;;;-1.20;99.90;;;;;;5133097;27;20187;-65
2023/12/06 01:23:31;;;;;;;32.40;19.27;;;-1.20;99.90;;;;;;5132951;27;20672;-62
2023/12/06 01:25:59;;;;;;;29.80;19.97;;;-1.20;99.90;;;;;;5133027;27;20744;-61
2023/12/06 01:28:28;;;;;;;31.00;19.07;;;-1.30;99.90;;;;;;5132767;27;20191;-63
2023/12/06 01:30:56;;;;;;;30.27;18.60;;;-1.20;99.90;;;;;;5132803;27;20247;-62
2023/12/06 01:33:24;;;;;;;28.53;17.87;;;-1.20;99.90;;;;;;5132798;27;20199;-63
2023/12/06 01:35:54;;;;;;;31.23;19.13;;;-1.20;99.90;;;;;;5132884;27;20259;-64
2023/12/06 01:38:22;;;;;;;31.97;18.83;;;-1.30;99.90;;;;;;5132780;27;20620;-67
2023/12/06 01:40:51;;;;;;;28.53;18.37;;;-1.20;99.90;;;;;;5132861;27;20194;-63
2023/12/06 01:43:19;;;;;;;29.20;18.57;;;-1.30;99.90;;;;;;5132849;27;20211;-66
2023/12/06 01:45:48;;;;;;;29.77;18.67;;;-1.20;99.90;;;;;;5132495;27;20202;-60
2023/12/06 01:48:19;;;;;;;32.30;18.77;;;-1.30;99.90;;;;;;5132124;27;20952;-61
2023/12/06 01:50:49;;;;;;;27.70;17.93;;;-1.30;99.90;;;;;;5132750;27;20235;-64
2023/12/06 01:53:19;;;;;;;29.23;19.30;;;-1.40;99.90;;;;;;5132570;27;20564;-66
2023/12/06 01:55:47;;;;;;;32.53;18.73;;;-1.40;99.90;;;;;;5132420;27;20219;-63
2023/12/06 01:58:15;;;;;;;28.90;18.80;;;-1.40;99.90;;;;;;5132090;27;20223;-65
2023/12/06 02:00:45;;;;;;;34.07;18.93;;;-1.60;99.90;;;;;;5132163;27;20272;-64
2023/12/06 02:03:15;;;;;;;32.10;18.50;;;-1.50;99.90;;;;;;5132393;27;20225;-60
2023/12/06 02:05:44;;;;;;;30.57;19.37;;;-1.50;99.90;;;;;;5132267;27;20222;-64
2023/12/06 02:08:13;;;;;;;33.67;19.07;;;-1.40;99.90;;;;;;5132307;27;20220;-66
2023/12/06 02:10:42;;;;;;;35.53;18.97;;;-1.50;99.90;;;;;;5132267;27;20191;-60
2023/12/06 02:13:11;;;;;;;34.53;20.37;;;-1.50;99.90;;;;;;5132130;27;20198;-65
2023/12/06 02:15:39;;;;;;;30.10;19.30;;;-1.50;99.90;;;;;;5131963;27;20301;-63
2023/12/06 02:18:08;;;;;;;35.90;20.57;;;-1.40;99.90;;;;;;5132098;27;20203;-63
2023/12/06 02:20:37;;;;;;;32.03;19.03;;;-1.50;99.90;;;;;;5131707;27;20191;-61
2023/12/06 02:23:08;;;;;;;35.80;20.80;;;-1.30;99.90;;;;;;5131979;27;20202;-63
2023/12/06 02:25:38;;;;;;;32.93;19.27;;;-1.20;99.90;;;;;;5131735;27;20202;-65
2023/12/06 02:28:06;;;;;;;32.77;19.47;;;-1.20;99.90;;;;;;5131678;27;20272;-64
2023/12/06 02:30:35;;;;;;;29.73;19.00;;;-1.30;99.90;;;;;;5131662;27;20198;-62
2023/12/06 02:33:03;;;;;;;31.23;19.90;;;-1.40;99.90;;;;;;5131491;27;20198;-65
2023/12/06 02:35:36;;;;;;;31.83;19.53;;;-1.40;99.90;;;;;;5131615;27;20249;-60
2023/12/06 02:38:05;;;;;;;31.30;19.30;;;-1.60;99.90;;;;;;5131805;27;20644;-65
2023/12/06 02:40:34;;;;;;;31.77;19.07;;;-1.60;99.90;;;;;;5131551;27;20191;-67
2023/12/06 02:43:04;;;;;;;29.13;18.47;;;-1.40;99.90;;;;;;5131618;27;20195;-64
2023/12/06 02:45:33;;;;;;;30.23;18.67;;;-1.20;99.90;;;;;;5131716;27;20198;-65
2023/12/06 02:48:01;;;;;;;33.50;19.50;;;-1.20;99.90;;;;;;5131677;27;20191;-65
2023/12/06 02:50:29;;;;;;;29.47;19.83;;;-1.10;99.90;;;;;;5131701;27;20213;-65
2023/12/06 02:52:58;;;;;;;30.67;19.07;;;-1.20;99.90;;;;;;5131547;27;20187;-66
2023/12/06 02:55:26;;;;;;;30.53;19.40;;;-1.10;99.90;;;;;;5131282;27;20219;-61
2023/12/06 02:57:54;;;;;;;33.30;20.13;;;-1.10;99.90;;;;;;5131167;27;20230;-65
2023/12/06 03:00:24;;;;;;;30.73;19.67;;;-1.00;99.90;;;;;;5130510;27;20745;-60
2023/12/06 03:02:53;;;;;;;34.03;21.00;;;-0.80;99.90;;;;;;5113018;27;20202;-65
2023/12/06 03:05:21;;;;;;;33.90;20.80;;;-0.80;99.90;;;;;;5131275;27;20195;-65
2023/12/06 03:07:49;;;;;;;32.33;19.00;;;-0.70;99.90;;;;;;5130884;27;20595;-66
2023/12/06 03:10:18;;;;;;;31.90;20.33;;;-0.90;99.90;;;;;;5130921;27;20187;-65
2023/12/06 03:12:46;;;;;;;31.97;20.47;;;-0.70;99.90;;;;;;5130926;27;20222;-65
2023/12/06 03:15:14;;;;;;;37.77;22.13;;;-0.70;99.90;;;;;;5130962;27;20218;-66
2023/12/06 03:17:44;;;;;;;32.00;20.77;;;-0.60;99.90;;;;;;5130648;27;20660;-66
2023/12/06 03:20:12;;;;;;;34.43;22.50;;;-0.50;99.90;;;;;;5130802;27;20737;-66
2023/12/06 03:22:41;;;;;;;36.63;23.27;;;-0.50;99.90;;;;;;5130730;27;20191;-67
2023/12/06 03:25:09;;;;;;;37.73;23.23;;;-0.50;99.90;;;;;;5130671;27;20518;-66
2023/12/06 03:27:37;;;;;;;35.83;22.40;;;-0.40;99.90;;;;;;5130365;27;20230;-61
2023/12/06 03:30:07;;;;;;;34.70;22.07;;;-0.40;99.90;;;;;;5130574;27;20194;-61
2023/12/06 03:32:37;;;;;;;42.67;23.17;;;-0.30;99.90;;;;;;5130284;27;20198;-63
2023/12/06 03:35:08;;;;;;;37.77;22.57;;;-0.40;99.90;;;;;;5130292;27;20214;-61
2023/12/06 03:37:36;;;;;;;41.07;22.97;;;-0.40;99.90;;;;;;5130533;27;20194;-66
2023/12/06 03:40:06;;;;;;;35.17;22.37;;;-0.40;99.90;;;;;;5130263;27;20733;-60
2023/12/06 03:42:34;;;;;;;36.97;22.50;;;-0.40;99.90;;;;;;5130339;27;20202;-67
2023/12/06 03:45:03;;;;;;;39.77;23.17;;;-0.50;99.90;;;;;;5130374;27;20230;-64
2023/12/06 03:47:31;;;;;;;40.47;24.37;;;-0.50;99.90;;;;;;5130125;27;20194;-63
2023/12/06 03:50:00;;;;;;;34.17;21.53;;;-0.50;99.90;;;;;;5130094;27;20187;-65
2023/12/06 03:52:30;;;;;;;36.40;22.83;;;-0.70;99.90;;;;;;5129994;27;20194;-66
2023/12/06 03:54:58;;;;;;;35.77;22.73;;;-0.60;99.90;;;;;;5130354;27;20885;-64
2023/12/06 03:57:27;;;;;;;36.87;21.83;;;-0.60;99.90;;;;;;5130051;27;20194;-65
2023/12/06 03:59:56;;;;;;;37.80;21.90;;;-0.70;99.90;;;;;;5130137;27;20219;-61
2023/12/06 04:02:25;;;;;;;33.57;20.77;;;-0.70;99.90;;;;;;5129858;27;20190;-66
2023/12/06 04:04:53;;;;;;;39.70;21.97;;;-0.80;99.90;;;;;;5130472;27;20684;-66
2023/12/06 04:07:21;;;;;;;37.27;22.53;;;-1.10;99.90;;;;;;5129977;27;20195;-65
2023/12/06 04:09:51;;;;;;;33.83;21.40;;;-1.10;99.90;;;;;;5130102;28;20197;-65
2023/12/06 04:12:19;;;;;;;34.63;22.03;;;-1.30;99.90;;;;;;5129778;28;20201;-65
2023/12/06 04:14:48;;;;;;;34.80;23.23;;;-1.40;99.90;;;;;;5129841;28;20580;-61
2023/12/06 04:17:17;;;;;;;36.93;22.67;;;-1.40;99.90;;;;;;5129914;28;20195;-61
2023/12/06 04:19:45;;;;;;;40.43;24.50;;;-1.50;99.90;;;;;;5130140;28;20190;-62
2023/12/06 04:22:13;;;;;;;37.53;22.00;;;-1.30;99.90;;;;;;5130003;28;20660;-63
2023/12/06 04:24:42;;;;;;;40.70;22.57;;;-1.40;99.90;;;;;;5129803;28;20247;-66
2023/12/06 04:27:11;;;;;;;36.70;22.33;;;-1.60;99.90;;;;;;5129785;28;20214;-64
2023/12/06 04:29:40;;;;;;;38.77;22.97;;;-1.80;99.90;;;;;;5129894;28;20183;-64
2023/12/06 04:32:08;;;;;;;38.93;23.40;;;-1.70;99.90;;;;;;5129792;28;20607;-62
2023/12/06 04:34:47;;;;;;;40.63;23.47;;;-1.60;99.90;;;;;;5129834;28;20198;-64
2023/12/06 04:37:15;;;;;;;41.23;22.80;;;-1.40;99.90;;;;;;5129837;28;20318;-62
2023/12/06 04:39:43;;;;;;;38.63;22.77;;;-1.40;99.90;;;;;;5130021;28;20206;-61
2023/12/06 04:42:13;;;;;;;40.33;22.90;;;-1.30;99.90;;;;;;5129683;28;20648;-64
2023/12/06 04:44:42;;;;;;;36.43;21.70;;;-1.30;99.90;;;;;;5129815;28;20195;-60
2023/12/06 04:47:10;;;;;;;34.67;22.03;;;-1.60;99.90;;;;;;5129442;28;20677;-65
2023/12/06 04:49:38;;;;;;;40.10;22.57;;;-1.80;99.90;;;;;;5129718;28;20210;-65
2023/12/06 04:52:07;;;;;;;39.43;22.83;;;-1.80;99.90;;;;;;5129598;28;20287;-62
2023/12/06 04:54:35;;;;;;;37.20;21.73;;;-2.10;99.90;;;;;;5129622;28;20214;-63
2023/12/06 04:57:04;;;;;;;36.20;22.67;;;-2.30;99.90;;;;;;5129459;28;20305;-66
2023/12/06 04:59:34;;;;;;;38.97;23.13;;;-2.30;99.90;;;;;;5129162;28;20234;-64
2023/12/06 05:02:03;;;;;;;36.57;22.40;;;-2.10;99.90;;;;;;5129264;28;20206;-65
2023/12/06 05:04:31;;;;;;;41.13;22.87;;;-1.90;99.90;;;;;;5129536;28;20191;-61
2023/12/06 05:06:59;;;;;;;44.07;25.13;;;-2.00;99.90;;;;;;5129497;28;20195;-62
2023/12/06 05:09:28;;;;;;;42.00;24.90;;;-1.90;99.90;;;;;;5129447;28;20194;-63
2023/12/06 05:11:57;;;;;;;41.60;25.80;;;-1.80;99.90;;;;;;5129452;28;20228;-59
2023/12/06 05:14:25;;;;;;;42.13;24.13;;;-1.80;99.90;;;;;;5129485;28;20214;-60
2023/12/06 05:16:55;;;;;;;52.80;34.13;;;-1.80;99.90;;;;;;5129314;28;20254;-60
2023/12/06 05:19:23;;;;;;;51.13;33.17;;;-1.80;99.90;;;;;;5129446;28;20202;-63
2023/12/06 05:21:53;;;;;;;42.70;25.60;;;-1.80;99.90;;;;;;5129311;27;20210;-62
2023/12/06 05:24:21;;;;;;;43.77;24.87;;;-1.90;99.90;;;;;;5132658;27;20222;-62
2023/12/06 05:26:49;;;;;;;35.93;22.63;;;-2.00;99.90;;;;;;5133267;27;20199;-58
2023/12/06 05:29:18;;;;;;;41.47;23.80;;;-2.20;99.90;;;;;;5114543;27;20202;-60
2023/12/06 05:31:46;;;;;;;41.23;24.30;;;-2.20;99.90;;;;;;5132958;27;20199;-61
2023/12/06 05:34:16;;;;;;;42.37;25.33;;;-2.30;99.90;;;;;;5132946;27;20748;-63
2023/12/06 05:36:44;;;;;;;42.97;25.60;;;-2.30;99.90;;;;;;5132735;27;20695;-61
2023/12/06 05:39:12;;;;;;;44.07;25.13;;;-2.30;99.90;;;;;;5132899;27;20190;-61
2023/12/06 05:41:41;;;;;;;60.03;30.83;;;-2.40;99.90;;;;;;5132818;27;20191;-58
2023/12/06 05:44:09;;;;;;;45.27;24.83;;;-2.40;99.90;;;;;;5132666;27;20191;-64
2023/12/06 05:46:37;;;;;;;55.20;31.90;;;-2.50;99.90;;;;;;5132622;27;20691;-60
2023/12/06 05:49:06;;;;;;;55.73;31.70;;;-2.40;99.90;;;;;;5132683;27;20668;-60
2023/12/06 05:51:36;;;;;;;58.33;32.97;;;-2.30;99.90;;;;;;5132628;27;20199;-57
2023/12/06 05:54:04;;;;;;;57.87;33.23;;;-2.20;99.90;;;;;;5132432;27;20679;-60
2023/12/06 05:56:32;;;;;;;44.13;27.40;;;-2.20;99.90;;;;;;5132253;27;20704;-61
2023/12/06 05:59:01;;;;;;;42.43;25.03;;;-2.30;99.90;;;;;;5112717;27;20246;-64
2023/12/06 06:01:29;;;;;;;36.90;22.07;;;-2.40;99.90;;;;;;5132536;27;20617;-60
2023/12/06 06:03:57;;;;;;;43.43;24.20;;;-3.00;99.90;;;;;;5132230;27;20211;-60
2023/12/06 06:06:26;;;;;;;44.40;24.27;;;-3.00;99.90;;;;;;5131940;27;20207;-61
2023/12/06 06:08:55;;;;;;;40.23;24.20;;;-3.00;99.90;;;;;;5132404;27;20219;-64
2023/12/06 06:11:24;;;;;;;39.93;23.07;;;-3.20;99.90;;;;;;5132121;27;20195;-62
2023/12/06 06:13:53;;;;;;;45.47;25.00;;;-3.40;99.90;;;;;;5132421;27;20191;-64
2023/12/06 06:16:21;;;;;;;49.27;29.67;;;-3.20;99.90;;;;;;5131900;27;20289;-64
2023/12/06 06:18:50;;;;;;;43.37;25.00;;;-2.90;99.90;;;;;;5131780;27;20248;-60
2023/12/06 06:21:19;;;;;;;44.30;25.50;;;-2.80;99.90;;;;;;5131961;27;20682;-63
2023/12/06 06:23:47;;;;;;;48.27;27.90;;;-3.00;99.90;;;;;;5131880;27;20202;-60
2023/12/06 06:26:17;;;;;;;47.20;25.97;;;-3.00;99.90;;;;;;5131870;27;20199;-65
2023/12/06 06:28:46;;;;;;;44.67;24.77;;;-3.10;99.90;;;;;;5131541;27;20265;-59
2023/12/06 06:31:14;;;;;;;54.77;28.77;;;-3.00;99.90;;;;;;5131850;27;20596;-61
2023/12/06 06:33:42;;;;;;;46.27;26.83;;;-2.90;99.90;;;;;;5131337;27;20668;-64
2023/12/06 06:36:11;;;;;;;49.67;27.97;;;-2.70;99.90;;;;;;5131569;27;20679;-61
2023/12/06 06:38:41;;;;;;;46.77;28.73;;;-2.80;99.90;;;;;;5131488;27;20247;-64
2023/12/06 06:41:09;;;;;;;50.67;29.03;;;-2.90;99.90;;;;;;5131435;27;20191;-66
2023/12/06 06:43:41;;;;;;;44.67;23.20;;;-3.00;99.90;;;;;;5131684;27;20281;-64
2023/12/06 06:46:09;;;;;;;49.70;28.03;;;-3.20;99.90;;;;;;5131394;27;20194;-61
2023/12/06 06:48:38;;;;;;;42.63;24.77;;;-3.20;99.90;;;;;;5131377;27;20239;-59
2023/12/06 06:51:09;;;;;;;54.70;28.63;;;-3.40;99.90;;;;;;5131471;27;20301;-65
2023/12/06 06:53:37;;;;;;;48.33;29.03;;;-3.30;99.90;;;;;;5131400;27;20529;-63
2023/12/06 06:56:06;;;;;;;54.63;33.27;;;-3.10;99.90;;;;;;5131427;27;20194;-65
2023/12/06 06:58:34;;;;;;;63.33;33.93;;;-3.10;99.90;;;;;;5130753;27;20238;-62
2023/12/06 07:01:05;;;;;;;61.50;33.80;;;-3.10;99.90;;;;;;5131053;27;20721;-60
2023/12/06 07:03:33;;;;;;;71.97;38.10;;;-3.00;99.90;;;;;;5131031;27;20202;-61
2023/12/06 07:06:02;;;;;;;60.73;32.27;;;-2.80;99.90;;;;;;5131348;27;20283;-61
2023/12/06 07:08:31;;;;;;;65.43;32.23;;;-2.80;99.90;;;;;;5131039;27;20191;-66
2023/12/06 07:11:00;;;;;;;55.47;30.60;;;-2.80;99.90;;;;;;5131132;27;20202;-62
2023/12/06 07:13:28;;;;;;;53.63;29.97;;;-2.70;99.90;;;;;;5130764;27;20202;-64
2023/12/06 07:15:57;;;;;;;45.00;25.37;;;-2.60;99.90;;;;;;5131155;27;20215;-65
2023/12/06 07:18:28;;;;;;;47.13;27.30;;;-3.00;99.90;;;;;;5131009;27;20703;-64
2023/12/06 07:20:56;;;;;;;49.63;26.43;;;-3.00;99.90;;;;;;5130929;27;20187;-59
2023/12/06 07:23:24;;;;;;;64.63;31.67;;;-2.90;99.90;;;;;;5130991;27;20243;-64
2023/12/06 07:25:53;;;;;;;60.73;32.57;;;-2.80;99.90;;;;;;5130857;27;20916;-66
2023/12/06 07:28:22;;;;;;;48.00;28.67;;;-2.60;99.90;;;;;;5130486;27;20683;-62
2023/12/06 07:30:50;;;;;;;56.07;29.20;;;-2.60;99.90;;;;;;5130686;27;20534;-63
2023/12/06 07:33:19;;;;;;;49.93;30.13;;;-2.50;99.90;;;;;;5130771;27;20199;-63
2023/12/06 07:35:49;;;;;;;59.23;31.70;;;-2.50;99.90;;;;;;5130768;27;20233;-62
2023/12/06 07:38:17;;;;;;;53.40;30.07;;;-2.40;99.90;;;;;;5130736;27;20256;-64
2023/12/06 07:40:44;;;;;;;52.77;30.40;;;-2.40;99.90;;;;;;5130797;27;20186;-63
2023/12/06 07:43:13;;;;;;;48.93;29.00;;;-2.40;99.90;;;;;;5130712;27;20209;-64
2023/12/06 07:45:41;;;;;;;43.80;25.63;;;-2.40;99.90;;;;;;5130270;27;20191;-66
2023/12/06 07:48:09;;;;;;;57.13;27.73;;;-2.60;99.90;;;;;;5130585;27;20214;-62
2023/12/06 07:50:38;;;;;;;54.20;28.63;;;-2.40;99.90;;;;;;5130545;27;20236;-63
2023/12/06 07:53:07;;;;;;;44.57;26.13;;;-2.30;99.90;;;;;;5130515;27;20264;-63
2023/12/06 07:55:36;;;;;;;60.23;34.03;;;-2.20;99.90;;;;;;5130321;27;20718;-64
2023/12/06 07:58:04;;;;;;;65.97;33.67;;;-2.30;99.90;;;;;;5130067;27;20337;-63
2023/12/06 08:00:36;;;;;;;65.03;34.03;;;-2.20;99.90;;;;;;5130318;27;20583;-66
2023/12/06 08:03:05;;;;;;;76.40;39.43;;;-2.00;99.90;;;;;;5130073;27;20862;-64
2023/12/06 08:05:33;;;;;;;48.87;26.47;;;-2.10;99.90;;;;;;5130103;27;20280;-64
2023/12/06 08:08:03;;;;;;;78.67;36.43;;;-2.30;99.90;;;;;;5130213;27;20236;-63
2023/12/06 08:10:33;;;;;;;86.33;43.20;;;-2.30;99.90;;;;;;5130085;28;20191;-65
2023/12/06 08:13:03;;;;;;;64.97;31.97;;;-2.10;99.90;;;;;;5130265;28;20195;-64
2023/12/06 08:15:32;;;;;;;55.20;27.60;;;-2.10;99.90;;;;;;5130350;28;20761;-65
2023/12/06 08:18:00;;;;;;;59.63;31.43;;;-2.10;99.90;;;;;;5130248;28;20214;-64
2023/12/06 08:20:29;;;;;;;65.23;35.30;;;-2.10;99.90;;;;;;5130247;28;20233;-62
2023/12/06 08:22:57;;;;;;;49.40;26.00;;;-2.10;99.90;;;;;;5130311;28;20205;-65
2023/12/06 08:25:25;;;;;;;62.77;34.67;;;-2.00;99.90;;;;;;5130334;28;20201;-64
2023/12/06 08:27:55;;;;;;;48.93;27.50;;;-1.90;99.90;;;;;;5130264;28;20210;-65
2023/12/06 08:30:23;;;;;;;56.53;26.80;;;-1.80;99.90;;;;;;5130296;28;20219;-63
2023/12/06 08:32:53;;;;;;;53.67;28.87;;;-2.10;99.90;;;;;;5129865;28;20195;-63
2023/12/06 08:35:21;;;;;;;51.27;26.07;;;-2.20;99.90;;;;;;5129838;28;20669;-63
2023/12/06 08:37:50;;;;;;;57.30;29.97;;;-2.20;99.90;;;;;;5129839;28;20578;-62
2023/12/06 08:40:18;;;;;;;53.07;27.83;;;-2.10;99.90;;;;;;5130044;28;20183;-63
2023/12/06 08:42:46;;;;;;;55.23;29.20;;;-2.10;99.90;;;;;;5130036;28;20218;-64
2023/12/06 08:45:16;;;;;;;61.57;32.57;;;-2.10;99.90;;;;;;5130079;28;20183;-65
2023/12/06 08:47:44;;;;;;;56.13;32.23;;;-2.00;99.90;;;;;;5129780;28;20206;-65
2023/12/06 08:50:14;;;;;;;47.43;24.33;;;-2.10;99.90;;;;;;5129501;28;20261;-64
2023/12/06 08:52:45;;;;;;;47.10;23.67;;;-2.10;99.90;;;;;;5129745;28;20739;-65
2023/12/06 08:55:13;;;;;;;46.47;24.83;;;-2.40;99.90;;;;;;5129481;28;20659;-63
2023/12/06 08:57:42;;;;;;;45.07;24.97;;;-2.50;99.90;;;;;;5130329;27;20304;-62
2023/12/06 09:00:12;;;;;;;47.73;25.47;;;-2.50;99.90;;;;;;5114428;27;20647;-67
2023/12/06 09:02:42;;;;;;;44.80;23.07;;;-2.50;99.90;;;;;;5133387;27;20194;-66
2023/12/06 09:05:11;;;;;;;39.63;21.57;;;-2.50;99.90;;;;;;5133400;27;20674;-65
2023/12/06 09:07:39;;;;;;;46.23;21.90;;;-2.40;99.90;;;;;;5133419;27;20283;-65
2023/12/06 09:10:09;;;;;;;43.40;23.87;;;-2.40;99.90;;;;;;5133191;27;20613;-60
2023/12/06 09:12:37;;;;;;;39.53;23.70;;;-2.30;99.90;;;;;;5133258;27;20198;-65
2023/12/06 09:15:06;;;;;;;44.73;25.00;;;-2.10;99.90;;;;;;5133525;27;20183;-64
2023/12/06 09:17:35;;;;;;;50.90;29.23;;;-1.80;99.90;;;;;;5133219;27;20618;-64
2023/12/06 09:20:06;;;;;;;38.90;20.37;;;-1.80;99.90;;;;;;5114764;27;20539;-64
2023/12/06 09:22:34;;;;;;;42.90;22.23;;;-1.70;99.90;;;;;;5133244;27;20278;-67
2023/12/06 09:25:04;;;;;;;41.53;24.20;;;-2.00;99.90;;;;;;5133164;27;20248;-67
2023/12/06 09:27:33;;;;;;;50.63;28.37;;;-2.20;99.90;;;;;;5133136;27;20251;-64
2023/12/06 09:30:03;;;;;;;39.77;23.37;;;-2.20;99.90;;;;;;5133069;27;20183;-64
2023/12/06 09:32:31;;;;;;;42.60;22.43;;;-2.30;99.90;;;;;;5133113;27;20538;-64
2023/12/06 09:35:00;;;;;;;42.90;25.07;;;-2.00;99.90;;;;;;5132909;27;20195;-60
2023/12/06 09:37:30;;;;;;;35.53;20.27;;;-2.10;99.90;;;;;;5133159;27;20236;-65
2023/12/06 09:39:58;;;;;;;40.90;22.20;;;-2.20;99.90;;;;;;5132978;27;20219;-63
2023/12/06 09:42:28;;;;;;;40.70;22.63;;;-2.00;99.90;;;;;;5133121;27;20574;-64
2023/12/06 09:44:57;;;;;;;39.40;22.30;;;-1.70;99.90;;;;;;5133142;27;20244;-65
2023/12/06 09:47:25;;;;;;;36.10;21.37;;;-1.70;99.90;;;;;;5133268;27;20191;-66
2023/12/06 09:49:53;;;;;;;44.90;22.60;;;-1.70;99.90;;;;;;5132849;27;20191;-66
2023/12/06 09:52:23;;;;;;;46.37;26.23;;;-1.60;99.90;;;;;;5132887;27;20569;-66
2023/12/06 09:54:55;;;;;;;45.37;22.97;;;-1.70;99.90;;;;;;5132762;27;20582;-65
2023/12/06 09:57:23;;;;;;;36.33;21.80;;;-1.70;99.90;;;;;;5132435;27;20573;-66
2023/12/06 09:59:52;;;;;;;39.67;21.90;;;-1.80;99.90;;;;;;5132695;27;20268;-66
2023/12/06 10:02:21;;;;;;;49.30;28.47;;;-1.70;99.90;;;;;;5132624;27;20195;-65
2023/12/06 10:04:49;;;;;;;40.77;23.70;;;-1.60;99.90;;;;;;5132597;27;20202;-66
2023/12/06 10:07:20;;;;;;;37.87;23.23;;;-1.50;99.90;;;;;;5132842;27;20191;-67
2023/12/06 10:09:53;;;;;;;46.57;28.43;;;-1.50;99.90;;;;;;5132321;27;20199;-64
2023/12/06 10:12:22;;;;;;;39.30;21.20;;;-1.20;99.90;;;;;;5132740;27;20216;-66
2023/12/06 10:14:58;;;;;;;41.00;22.03;;;-1.20;99.90;;;;;;5132745;27;20191;-67
2023/12/06 10:17:27;;;;;;;45.83;25.60;;;-1.70;99.90;;;;;;5132728;27;20191;-66
2023/12/06 10:19:56;;;;;;;41.43;24.30;;;-1.50;99.90;;;;;;5132374;27;20554;-67
2023/12/06 10:22:26;;;;;;;43.77;24.97;;;-1.60;99.90;;;;;;5132536;27;20201;-64
2023/12/06 10:24:57;;;;;;;48.27;27.60;;;-1.60;99.90;;;;;;5132413;27;20187;-66
2023/12/06 10:27:26;;;;;;;46.37;27.73;;;-1.30;99.90;;;;;;5132125;27;20256;-67
2023/12/06 10:29:54;;;;;;;46.53;23.13;;;-1.10;99.90;;;;;;5132261;27;20195;-62
2023/12/06 10:32:23;;;;;;;43.20;23.23;;;-1.30;99.90;;;;;;5132282;27;20279;-64
2023/12/06 10:34:52;;;;;;;47.27;27.07;;;-1.50;99.90;;;;;;5132089;27;20206;-61
2023/12/06 10:37:22;;;;;;;38.40;22.47;;;-1.40;99.90;;;;;;5132233;27;20215;-67
2023/12/06 10:39:53;;;;;;;43.07;23.43;;;-1.40;99.90;;;;;;5131961;27;20223;-63
2023/12/06 10:42:29;;;;;;;43.73;24.20;;;-1.30;99.90;;;;;;5132021;27;20195;-65
2023/12/06 10:44:59;;;;;;;46.17;26.93;;;-1.50;99.90;;;;;;5132150;27;20274;-64
2023/12/06 10:47:29;;;;;;;59.93;31.67;;;-1.60;99.90;;;;;;5131932;27;20191;-66
2023/12/06 10:50:03;;;;;;;86.43;43.30;;;-1.30;99.90;;;;;;5112945;27;20231;-66
2023/12/06 10:52:33;;;;;;;48.10;26.17;;;-1.00;99.90;;;;;;5131849;27;20541;-67
2023/12/06 10:55:03;;;;;;;50.90;28.10;;;-0.90;99.90;;;;;;5131617;27;20195;-60
2023/12/06 10:57:37;;;;;;;48.80;25.37;;;-1.10;99.90;;;;;;5131353;27;20223;-67
2023/12/06 11:00:07;;;;;;;59.43;31.57;;;-1.30;99.90;;;;;;5131481;27;20217;-65
2023/12/06 11:02:35;;;;;;;64.60;34.90;;;-1.30;99.90;;;;;;5131454;27;20291;-65
2023/12/06 11:05:07;;;;;;;49.20;29.73;;;-0.90;99.90;;;;;;5131251;27;20656;-65
2023/12/06 11:07:54;;;;;;;48.37;27.40;;;-0.70;99.90;;;;;;5131510;27;20567;-66
2023/12/06 11:10:36;;;;;;;49.27;25.90;;;-0.80;99.90;;;;;;5131229;27;20627;-63
2023/12/06 11:13:21;;;;;;;45.30;26.47;;;-1.20;99.90;;;;;;5131314;27;20187;-66
2023/12/06 11:16:00;;;;;;;46.87;22.90;;;-1.00;99.90;;;;;;5131504;27;20197;-66
2023/12/06 11:18:39;;;;;;;49.07;25.30;;;-1.00;99.90;;;;;;5131055;27;20245;-65
2023/12/06 11:21:07;;;;;;;46.33;25.13;;;-0.80;99.90;;;;;;5130238;27;20218;-65
2023/12/06 11:23:36;;;;;;;42.60;22.90;;;-1.00;99.90;;;;;;5130953;27;20190;-60
2023/12/06 11:26:05;;;;;;;41.57;24.17;;;-1.30;99.90;;;;;;5130865;27;20211;-65
2023/12/06 11:28:40;;;;;;;53.90;28.57;;;-1.30;99.90;;;;;;5130908;27;20203;-65
2023/12/06 11:31:12;;;;;;;46.37;24.33;;;-0.90;99.90;;;;;;5130818;27;20674;-66
2023/12/06 11:33:40;;;;;;;49.70;23.93;;;-0.80;99.90;;;;;;5111510;27;20209;-65
2023/12/06 11:36:16;;;;;;;51.93;27.47;;;-0.90;99.90;;;;;;5130601;27;20183;-64
2023/12/06 11:38:44;;;;;;;47.80;27.40;;;-0.90;99.90;;;;;;5130650;27;20182;-67
2023/12/06 11:41:16;;;;;;;42.93;24.37;;;-0.90;99.90;;;;;;5130580;27;20201;-63
2023/12/06 11:43:48;;;;;;;50.10;25.43;;;-1.20;99.90;;;;;;5130289;27;20555;-67
2023/12/06 11:46:18;;;;;;;44.63;26.13;;;-1.60;99.90;;;;;;5130309;27;20294;-64
2023/12/06 11:48:48;;;;;;;48.83;25.40;;;-1.40;99.90;;;;;;5129932;27;20279;-66
2023/12/06 11:51:21;;;;;;;49.03;26.03;;;-1.40;99.90;;;;;;5130249;27;20339;-66
2023/12/06 11:53:51;;;;;;;57.17;27.67;;;-1.00;99.90;;;;;;5129858;27;20546;-65
2023/12/06 11:56:23;;;;;;;48.87;25.53;;;-1.00;99.90;;;;;;5130073;27;20270;-66
2023/12/06 11:58:54;;;;;;;54.90;30.50;;;-0.90;99.90;;;;;;5129655;27;20297;-66
2023/12/06 12:01:23;;;;;;;54.23;27.00;;;-0.80;99.90;;;;;;5129742;27;20199;-65
2023/12/06 12:03:52;;;;;;;49.00;23.70;;;-0.70;99.90;;;;;;5130046;27;20215;-64
2023/12/06 12:06:23;;;;;;;45.20;25.13;;;-0.90;99.90;;;;;;5130007;27;20552;-67
2023/12/06 12:08:51;;;;;;;47.00;25.50;;;-0.70;99.90;;;;;;5129967;27;20216;-65
2023/12/06 12:11:20;;;;;;;46.70;25.43;;;-1.00;99.90;;;;;;5123765;27;20195;-67
2023/12/06 12:13:48;;;;;;;46.67;23.90;;;-1.20;99.90;;;;;;5118670;28;20192;-66
2023/12/06 12:16:19;;;;;;;48.90;22.83;;;-1.60;99.90;;;;;;5109705;28;20196;-63
2023/12/06 12:18:48;;;;;;;47.30;25.27;;;-1.80;99.90;;;;;;5109491;28;20194;-64
2023/12/06 12:21:19;;;;;;;43.13;23.40;;;-1.80;99.90;;;;;;5127822;28;20687;-63
2023/12/06 12:23:48;;;;;;;44.93;25.80;;;-1.70;99.90;;;;;;5129986;28;20191;-59
2023/12/06 12:26:18;;;;;;;50.87;27.13;;;-1.80;99.90;;;;;;5129368;28;20273;-64
2023/12/06 12:28:47;;;;;;;61.13;32.93;;;-1.60;99.90;;;;;;5129846;28;20191;-67
2023/12/06 12:31:21;;;;;;;55.47;29.30;;;-1.40;99.90;;;;;;5130472;27;20729;-66
2023/12/06 12:33:50;;;;;;;63.70;29.23;;;-1.10;99.90;;;;;;5134665;27;20202;-60
2023/12/06 12:36:22;;;;;;;55.77;29.00;;;-0.90;99.90;;;;;;5134135;27;20244;-67
2023/12/06 12:38:53;;;;;;;53.60;28.53;;;-0.90;99.90;;;;;;5134307;27;20238;-65